Fairbanks International Airport
PAFA : rendu visible

Aérodrome :











RETROUVEZ-NOUS SUR...

 
LOGIN :

S'inscrire | Disclaimer

   EN    FR    IT 

 









Légende :    VFR   VFR Marginal   IFR   IFR Intensif   IFR Très Intensif
Visi : 
Plafond : 
>= 8 km
>= 3000ft
5 à 8 km
1000 à 3000 ft
1500m à 5 km
500 à 1000 ft
800 à 1500m
200 à 500 ft
< 800m
< 200 ft
Symboles :   Orages  Brouillard  Fortes neiges  Fortes précipitations  Vent > 20 kt






- Altitude de l'aérodrome : 439 ft
- Code IATA : FAI


PAFA - Fairbanks International

DERNIER METAR :
  • 250853Z 02005KT 10SM -RA BKN060 OVC075 12/11 A2959 RMK AO2 RAB15 SLP023 P0000 60000 T01220106 401720094 51017 $

METARs EXPIRÉS :
  • 250753Z 00000KT 10SM FEW065 SCT080 OVC100 12/11 A2958 RMK AO2 SLP019 T01220111 $
  • 250653Z 00000KT 10SM FEW065 BKN080 OVC100 13/11 A2956 RMK AO2 SLP012 T01330106 $
  • 250553Z 00000KT 10SM SCT035 SCT090 OVC110 14/11 A2954 RMK AO2 SLP006 60001 T01390111 10167 20139 53009 $

TAF PAFA
Valide du 25 à 06h jusqu'au 26 à 12h UTC


250520Z 2506/2612 VRB03KT P6SM -SHRA FEW045 BKN070 OVC080
FM250900 24004KT 6SM -SHRA BR OVC035
FM251400 24004KT 6SM -RA BR BKN025 OVC035
FM251800 24004KT 4SM -RA BR BKN015 OVC025
FM260500 22004KT P6SM VCSH OVC050
FIR PAZA / Amérique du Nord



MET'MAP, la Météo Aéronautique d'un coup d'oeil ! - Copyright ORBIFLY Décembre 2007 - Disclaimer

ORBIFLY MET'MAP TEAM :

Programmation & Développement : Alexandra Zaïnal
Sur une idée originale de : Baudouin d'Aumeries
Assistance à la programmation : Marc-Olivier Méhu
Soutien technique & logistique : Manuel Goepfert

Contact : metmap@orbifly.com




SOURCES & CREDITS :

   NOAA       Earth
Advisory